Startpagina
METAR-TAF:

METAR-TAF

Vliegvelden :

Jönköping Airport

Jönköping, Zweden

breedte: 57-46N, lengte: 014-05E, hoogte: 226 m

Actueel weer

Dit bericht is 34 minuten geleden gemaakt, om 01:50 UTC
Wind 15 kt uit het westzuidwesten
Temperatuur 5°C
Vochtigheid 100%
Druk 1012 hPa
Zicht: 8000 m

METAR: ESGJ 240150Z AUTO 25015KT 8000 OVC007/// 05/05 Q1012

Tijdstip: 03:24 (02:24 UTC)

Verwachting

Dit bericht is 2 uur en het 54 minuten geleden gemaakt, om 23:30 UTC
Verwachting geldig van 24 om 00 UTC tot 24 om 02 UTC
Wind 15 kt uit het westen met uitschieters tot 25 kt
Zicht 10 km of meer
Gebroken wolken op 1000 ft
Kans 40%
van 24 om 00 UTC tot 24 om 02 UTC
Zicht: 4000 m
Gebroken wolken op 800 ft
nevel

TAF: ESGJ 232330Z 2400/2402 26015G25KT 9999 BKN010 PROB40 2400/2402 4000 BR BKN008

Waarnemingen en weersverwachtingen van meer dan 4000 vliegvelden (METAR en TAF).

De beschikbare stations zijn de gele en rode punten op de kaart.

Ga met uw muis naar het station om de naam te zien.

Klik dan om waarnemingen en weersverwachtingen te zien.

kaart wijzigen: klik op de groene knoppen met een zwart kruis om in te zoomen, op de groene knop met een streepje om uit te zoomen of op de groene pijlen voor aangrenzende kaarten.


METAR-TAF: